Falmouth, Maine
Current Conditions -  °F | °C
As of 1:51 AM on Friday 28 Nov 2014 (Local Time) from KPWM Reporting Station
Overcast Overcast  
Wind Chill: 18°   Ceiling: 6000
Heat Index: 28°   Visibility: 10mi
Dew Point: 20°   Wind: 12mph
Humidity: 72%   Direction: 20°NNE
Pressure: 30.02"   Gusts: NA
Location:  43.73°N, 70.24°W
Report Text: KPWM 280651Z AUTO 02010KT 10SM BKN060 OVC075 M02/M07 A3002 RMK AO2 SLP165 T10221067
Loading
Personal Weather Stations






























Interactive Weather Map New forecast layout! Learn more

10-Day Weather Forecast

Advertisements
Track Severe Weather on mobile